Time;durP1;ratioP1;P1;durP2;ratioP2;P2;SDS_P1;SDS_P2;PMS_P1;PMS_P2;Temp;Humidity;BMP_temperature;BMP_pressure;BME280_temperature;BME280_humidity;BME280_pressure;Samples;Min_cycle;Max_cycle;Signal;HPM_P1;HPM_P2
2021/12/12 00:02:26;;;;;;;;;;;;;;;2.14;85.71;101602.06;4966133;27;20294;-80
2021/12/12 00:04:52;;;;;;;;;;;;;;;2.16;85.46;101613.31;4968909;28;20162;-79
2021/12/12 00:07:21;;;;;;;;;;;;;;;2.17;85.75;101604.56;4972252;27;20338;-81
2021/12/12 00:09:47;;;;;;;;;;;;;;;2.18;85.90;101606.28;4967066;28;20314;-81
2021/12/12 00:12:22;;;;;;;;;;;;;;;2.22;85.05;101603.47;4953619;28;20907;-80
2021/12/12 00:14:48;;;;;;;;;;;;;;;2.25;85.08;101607.72;4969661;28;19965;-80
2021/12/12 00:17:13;;;;;;;;;;;;;;;2.21;84.76;101600.91;4970054;27;19923;-80
2021/12/12 00:19:38;;;;;;;;;;;;;;;2.25;84.91;101612.94;4970675;27;19904;-80
2021/12/12 00:22:06;;;;;;;;;;;;;;;2.30;84.81;101610.13;4971546;27;20212;-80
2021/12/12 00:24:31;;;;;;;;;;;;;;;2.31;84.85;101599.63;4974067;27;19912;-80
2021/12/12 00:26:57;;;;;;;;;;;;;;;2.31;84.52;101597.00;4955055;27;20503;-80
2021/12/12 00:29:22;;;;;;;;;;;;;;;2.32;84.77;101603.09;4971459;27;20237;-80
2021/12/12 00:31:47;;;;;;;;;;;;;;;2.36;84.33;101609.91;4955853;27;19983;-79
2021/12/12 00:34:12;;;;;;;;;;;;;;;2.41;84.25;101610.56;4949515;27;20443;-79
2021/12/12 00:36:40;;;;;;;;;;;;;;;2.46;83.86;101613.00;4973731;27;20657;-80
2021/12/12 00:39:10;;;;;;;;;;;;;;;2.42;83.96;101621.88;4949767;27;20230;-80
2021/12/12 00:41:41;;;;;;;;;;;;;;;2.44;83.99;101612.19;4968495;27;20303;-80
2021/12/12 00:44:06;;;;;;;;;;;;;;;2.50;83.90;101617.19;4948028;27;20393;-80
2021/12/12 00:46:32;;;;;;;;;;;;;;;2.52;83.75;101612.72;4969292;27;19923;-80
2021/12/12 00:48:57;;;;;;;;;;;;;;;2.54;83.71;101613.53;4973024;27;19907;-80
2021/12/12 00:51:26;;;;;;;;;;;;;;;2.53;83.79;101611.81;4965816;27;20571;-78
2021/12/12 00:53:51;;;;;;;;;;;;;;;2.53;83.75;101609.22;4964929;27;20501;-78
2021/12/12 00:56:18;;;;;;;;;;;;;;;2.58;83.72;101615.06;4962034;27;20016;-79
2021/12/12 00:58:43;;;;;;;;;;;;;;;2.63;83.54;101607.91;4969111;27;19927;-78
2021/12/12 01:01:13;;;;;;;;;;;;;;;2.60;83.35;101599.38;4954786;27;20304;-78
2021/12/12 01:03:49;;;;;;;;;;;;;;;2.61;83.34;101601.91;4950933;27;19996;-80
2021/12/12 01:06:15;;;;;;;;;;;;;;;2.67;83.00;101593.81;4951257;28;19916;-78
2021/12/12 01:08:40;;;;;;;;;;;;;;;2.57;83.04;101593.34;4951316;28;19915;-81
2021/12/12 01:11:13;;;;;;;;;;;;;;;2.53;83.71;101585.69;4946402;28;20309;-80
2021/12/12 01:13:39;;;;;;;;;;;;;;;2.58;83.87;101591.56;4960016;27;20368;-79
2021/12/12 01:16:06;;;;;;;;;;;;;;;2.62;82.88;101579.22;4965508;27;19945;-81
2021/12/12 01:18:34;;;;;;;;;;;;;;;2.60;82.70;101581.91;4963988;27;20250;-80
2021/12/12 01:21:03;;;;;;;;;;;;;;;2.59;82.79;101590.66;4969803;27;20329;-81
2021/12/12 01:23:31;;;;;;;;;;;;;;;2.63;83.13;101586.16;4970353;27;20771;-78
2021/12/12 01:25:57;;;;;;;;;;;;;;;2.61;83.12;101591.47;4968120;27;19908;-78
2021/12/12 01:28:23;;;;;;;;;;;;;;;2.66;82.85;101589.47;4973541;27;19927;-78
2021/12/12 01:30:48;;;;;;;;;;;;;;;2.66;83.20;101596.47;4966929;27;19912;-78
2021/12/12 01:33:21;;;;;;;;;;;;;;;2.64;83.12;101593.09;4947215;28;20333;-80
2021/12/12 01:35:47;;;;;;;;;;;;;;;2.64;83.05;101587.88;4958622;28;20442;-78
2021/12/12 01:40:57;;;;;;;;;;;;;;;2.65;82.76;101579.09;4934240;28;20384;-79
2021/12/12 01:43:29;;;;;;;;;;;;;;;2.66;82.48;101581.63;4940263;28;19920;-79
2021/12/12 01:46:00;;;;;;;;;;;;;;;2.67;82.68;101583.34;4970192;28;19924;-78
2021/12/12 01:48:27;;;;;;;;;;;;;;;2.63;82.82;101589.63;4956977;28;19936;-79
2021/12/12 01:50:54;;;;;;;;;;;;;;;2.66;82.42;101589.47;4960324;28;20709;-79
2021/12/12 01:53:20;;;;;;;;;;;;;;;2.61;82.74;101587.97;4956491;28;20614;-79
2021/12/12 01:55:48;;;;;;;;;;;;;;;2.64;82.60;101582.66;4956462;28;19973;-79
2021/12/12 01:58:15;;;;;;;;;;;;;;;2.65;82.54;101577.34;4990418;27;20314;-79
2021/12/12 02:00:45;;;;;;;;;;;;;;;2.66;82.45;101573.81;4987728;28;19912;-79
2021/12/12 02:03:11;;;;;;;;;;;;;;;2.77;81.65;101577.75;4987044;28;19900;-78
2021/12/12 02:05:37;;;;;;;;;;;;;;;2.77;81.20;101582.97;4985872;28;19916;-78
2021/12/12 02:08:05;;;;;;;;;;;;;;;2.72;82.02;101586.63;4972479;28;20089;-77
2021/12/12 02:10:31;;;;;;;;;;;;;;;2.69;81.81;101570.22;4972845;28;20157;-79
2021/12/12 02:12:58;;;;;;;;;;;;;;;2.71;82.57;101577.09;4958934;28;19972;-78
2021/12/12 02:15:24;;;;;;;;;;;;;;;2.80;82.09;101572.38;4967320;28;20390;-79
2021/12/12 02:17:50;;;;;;;;;;;;;;;2.80;81.89;101573.22;4986088;28;20016;-79
2021/12/12 02:20:40;;;;;;;;;;;;;;;2.80;81.90;101572.38;4985317;28;20052;-78
2021/12/12 02:23:20;;;;;;;;;;;;;;;2.72;82.18;101565.72;5004010;28;19908;-78
2021/12/12 02:36:43;;;;;;;;;;;;;;;2.80;81.83;101561.94;4985761;28;20703;-81
2021/12/12 02:39:15;;;;;;;;;;;;;;;2.83;81.60;101569.63;4975359;28;19923;-78
2021/12/12 02:41:41;;;;;;;;;;;;;;;2.83;81.54;101567.84;4984239;28;19904;-79
2021/12/12 02:44:06;;;;;;;;;;;;;;;2.81;81.94;101568.84;4985785;28;19911;-78
2021/12/12 02:46:33;;;;;;;;;;;;;;;2.84;81.71;101566.09;5000064;27;19934;-79
2021/12/12 02:49:06;;;;;;;;;;;;;;;2.90;81.78;101565.81;5003288;27;20057;-78
2021/12/12 02:51:31;;;;;;;;;;;;;;;2.86;81.92;101556.41;5001490;27;19922;-79
2021/12/12 02:53:56;;;;;;;;;;;;;;;2.96;81.21;101564.72;5001799;27;19911;-78
2021/12/12 02:56:23;;;;;;;;;;;;;;;2.98;81.12;101549.81;5002641;28;19994;-78
2021/12/12 02:58:48;;;;;;;;;;;;;;;2.94;81.47;101553.47;4977414;28;20330;-78
2021/12/12 03:01:15;;;;;;;;;;;;;;;2.93;81.50;101552.63;4984468;28;20059;-80
2021/12/12 03:03:41;;;;;;;;;;;;;;;3.01;81.14;101545.28;4960843;28;19904;-79
2021/12/12 03:06:06;;;;;;;;;;;;;;;2.99;81.40;101547.13;4973175;27;20529;-79
2021/12/12 03:08:31;;;;;;;;;;;;;;;3.00;81.28;101542.75;4959798;27;20454;-78
2021/12/12 03:10:57;;;;;;;;;;;;;;;3.02;81.66;101533.91;4949623;28;19916;-79
2021/12/12 03:13:22;;;;;;;;;;;;;;;3.04;81.43;101539.06;4958386;27;20227;-78
2021/12/12 03:15:48;;;;;;;;;;;;;;;3.07;81.37;101545.03;4952059;27;20115;-78
2021/12/12 03:18:18;;;;;;;;;;;;;;;3.01;81.21;101545.28;4952215;27;20001;-78
2021/12/12 03:20:44;;;;;;;;;;;;;;;3.02;81.47;101547.00;4950459;27;20232;-79
2021/12/12 03:23:20;;;;;;;;;;;;;;;3.12;81.54;101547.44;4955206;28;19919;-79
2021/12/12 03:25:45;;;;;;;;;;;;;;;3.12;81.11;101542.19;4961528;28;19934;-79
2021/12/12 03:28:11;;;;;;;;;;;;;;;3.13;80.94;101553.50;4948538;28;20615;-79
2021/12/12 03:30:37;;;;;;;;;;;;;;;3.15;80.90;101546.44;4952808;28;19912;-81
2021/12/12 03:33:02;;;;;;;;;;;;;;;3.19;80.89;101548.84;4967723;28;19908;-81
2021/12/12 03:35:28;;;;;;;;;;;;;;;3.16;81.20;101537.66;4963930;28;20386;-81
2021/12/12 03:37:53;;;;;;;;;;;;;;;3.24;80.74;101540.78;4953461;27;20392;-81
2021/12/12 03:40:20;;;;;;;;;;;;;;;3.29;80.45;101551.06;4947633;28;19922;-79
2021/12/12 03:42:45;;;;;;;;;;;;;;;3.28;80.68;101541.50;4946459;28;20483;-79
2021/12/12 03:45:11;;;;;;;;;;;;;;;3.24;80.97;101556.47;4967404;28;20265;-81
2021/12/12 03:47:38;;;;;;;;;;;;;;;3.17;81.21;101552.44;4966079;28;20255;-79
2021/12/12 03:50:05;;;;;;;;;;;;;;;3.19;81.63;101553.25;4959455;28;20012;-81
2021/12/12 03:52:32;;;;;;;;;;;;;;;3.27;81.19;101556.34;4963514;28;19961;-79
2021/12/12 03:55:00;;;;;;;;;;;;;;;3.24;81.08;101553.88;4959634;27;20889;-78
2021/12/12 03:57:25;;;;;;;;;;;;;;;3.27;81.17;101556.34;4963529;27;19919;-78
2021/12/12 03:59:50;;;;;;;;;;;;;;;3.40;80.72;101557.50;4946707;28;20273;-80
2021/12/12 04:02:16;;;;;;;;;;;;;;;3.32;80.94;101557.00;4958798;28;20287;-79
2021/12/12 04:04:42;;;;;;;;;;;;;;;3.24;81.22;101551.25;4963423;27;20593;-79
2021/12/12 04:07:12;;;;;;;;;;;;;;;3.23;81.33;101545.19;4963754;28;20513;-78
2021/12/12 04:09:37;;;;;;;;;;;;;;;3.36;81.26;101557.72;4949267;28;20705;-78
2021/12/12 04:12:03;;;;;;;;;;;;;;;3.29;81.47;101564.97;4972729;28;19908;-78
2021/12/12 04:14:28;;;;;;;;;;;;;;;3.36;80.85;101561.16;4966143;28;19907;-78
2021/12/12 04:16:55;;;;;;;;;;;;;;;3.42;81.12;101562.66;4964061;28;19939;-78
2021/12/12 04:19:20;;;;;;;;;;;;;;;3.41;81.07;101553.97;4948647;28;20290;-79
2021/12/12 04:21:46;;;;;;;;;;;;;;;3.38;81.24;101551.47;4966268;28;20350;-79
2021/12/12 04:24:14;;;;;;;;;;;;;;;3.40;81.71;101560.09;4945012;28;20376;-79
2021/12/12 04:26:40;;;;;;;;;;;;;;;3.37;82.29;101560.25;4947072;28;20273;-79
2021/12/12 04:29:13;;;;;;;;;;;;;;;3.37;82.47;101556.78;4943450;28;20071;-80
2021/12/12 04:31:39;;;;;;;;;;;;;;;3.42;82.75;101555.63;4957619;28;19907;-79
2021/12/12 04:34:05;;;;;;;;;;;;;;;3.49;82.95;101556.22;4946001;28;20310;-78
2021/12/12 04:36:36;;;;;;;;;;;;;;;3.43;82.96;101554.72;4945711;28;20348;-78
2021/12/12 04:39:11;;;;;;;;;;;;;;;3.53;82.52;101563.00;4985387;28;19927;-78
2021/12/12 04:41:37;;;;;;;;;;;;;;;3.43;84.11;101552.13;4980312;27;19913;-79
2021/12/12 04:44:02;;;;;;;;;;;;;;;3.43;83.81;101552.13;4958299;28;19916;-79
2021/12/12 04:46:37;;;;;;;;;;;;;;;3.54;84.45;101561.22;4969160;28;20086;-78
2021/12/12 04:51:47;;;;;;;;;;;;;;;3.49;84.61;101553.59;4971464;28;20462;-79
2021/12/12 04:54:26;;;;;;;;;;;;;;;3.42;85.24;101558.25;4967854;28;19904;-79
2021/12/12 04:56:56;;;;;;;;;;;;;;;3.44;85.82;101545.97;4951717;28;19908;-79
2021/12/12 04:59:40;;;;;;;;;;;;;;;3.37;85.82;101536.72;4972540;28;19919;-79
2021/12/12 05:02:24;;;;;;;;;;;;;;;3.42;86.23;101542.56;4977551;27;20314;-79
2021/12/12 05:04:54;;;;;;;;;;;;;;;3.52;85.44;101537.75;4953248;28;20316;-79
2021/12/12 05:07:40;;;;;;;;;;;;;;;3.46;86.41;101534.59;4954474;27;19911;-78
2021/12/12 05:10:10;;;;;;;;;;;;;;;3.48;86.21;101537.97;4971448;27;20328;-78
2021/12/12 05:12:46;;;;;;;;;;;;;;;3.52;85.63;101534.28;4972683;27;19908;-80
2021/12/12 05:15:19;;;;;;;;;;;;;;;3.52;85.79;101529.06;4963243;27;19931;-81
2021/12/12 05:17:49;;;;;;;;;;;;;;;3.49;85.98;101540.50;4954597;27;20487;-80
2021/12/12 05:20:17;;;;;;;;;;;;;;;3.48;86.37;101543.19;4961571;27;19956;-81
2021/12/12 05:22:43;;;;;;;;;;;;;;;3.58;86.52;101545.34;4938979;27;20291;-80
2021/12/12 05:25:09;;;;;;;;;;;;;;;3.49;87.32;101550.97;4982882;27;20008;-81
2021/12/12 05:27:34;;;;;;;;;;;;;;;3.40;88.07;101538.34;4962625;27;20161;-81
2021/12/12 05:30:10;;;;;;;;;;;;;;;3.39;88.32;101541.88;4957443;27;20345;-81
2021/12/12 05:32:36;;;;;;;;;;;;;;;3.40;88.71;101544.41;4979498;27;19915;-81
2021/12/12 05:35:01;;;;;;;;;;;;;;;3.38;89.56;101543.63;4960011;27;19908;-80
2021/12/12 05:37:27;;;;;;;;;;;;;;;3.39;90.15;101545.31;4972779;28;20220;-78
2021/12/12 05:39:52;;;;;;;;;;;;;;;3.37;90.70;101547.19;4955020;28;20226;-78
2021/12/12 05:42:17;;;;;;;;;;;;;;;3.41;91.13;101533.03;4943347;28;20803;-79
2021/12/12 05:44:43;;;;;;;;;;;;;;;3.36;91.11;101553.31;4944297;28;19911;-79
2021/12/12 05:47:08;;;;;;;;;;;;;;;3.30;91.44;101550.13;4952551;28;19924;-79
2021/12/12 05:49:35;;;;;;;;;;;;;;;3.23;92.08;101550.41;4970519;28;19908;-79
2021/12/12 05:52:00;;;;;;;;;;;;;;;3.24;92.40;101548.63;4954175;28;19912;-79
2021/12/12 05:54:26;;;;;;;;;;;;;;;3.23;92.78;101558.25;4974552;28;20228;-79
2021/12/12 05:56:51;;;;;;;;;;;;;;;3.24;92.99;101546.03;4937309;28;19915;-79
2021/12/12 05:59:16;;;;;;;;;;;;;;;3.22;93.40;101551.31;4951078;28;19931;-79
2021/12/12 06:01:41;;;;;;;;;;;;;;;3.21;93.50;101551.41;4947342;28;19908;-78
2021/12/12 06:04:07;;;;;;;;;;;;;;;3.23;93.79;101557.41;4955084;28;19908;-79
2021/12/12 06:06:37;;;;;;;;;;;;;;;3.25;93.92;101553.78;4958824;28;19912;-79
2021/12/12 06:09:03;;;;;;;;;;;;;;;3.27;93.87;101545.88;4986939;27;19903;-78
2021/12/12 06:11:29;;;;;;;;;;;;;;;3.33;94.05;101549.97;4972617;27;20287;-79
2021/12/12 06:13:54;;;;;;;;;;;;;;;3.36;93.82;101550.69;4956405;28;20591;-79
2021/12/12 06:16:20;;;;;;;;;;;;;;;3.31;94.41;101557.91;4968590;27;19908;-79
2021/12/12 06:18:46;;;;;;;;;;;;;;;3.29;94.52;101557.13;4972745;27;20299;-79
2021/12/12 06:21:11;;;;;;;;;;;;;;;3.25;94.79;101542.50;4971574;27;20408;-79
2021/12/12 06:23:36;;;;;;;;;;;;;;;3.26;95.20;101546.81;4971251;27;20396;-81
2021/12/12 06:26:01;;;;;;;;;;;;;;;3.27;95.38;101553.72;4966623;27;20223;-81
2021/12/12 06:28:31;;;;;;;;;;;;;;;3.25;95.71;101552.97;4953772;27;20289;-81
2021/12/12 06:30:57;;;;;;;;;;;;;;;3.31;95.92;101549.22;4957508;27;20186;-81
2021/12/12 06:33:22;;;;;;;;;;;;;;;3.33;95.96;101549.97;4970921;27;20463;-81
2021/12/12 06:35:47;;;;;;;;;;;;;;;3.41;95.82;101547.88;4961668;28;20023;-81
2021/12/12 06:38:13;;;;;;;;;;;;;;;3.44;95.64;101553.81;4967683;28;19923;-81
2021/12/12 06:40:39;;;;;;;;;;;;;;;3.35;95.87;101554.22;4958136;27;19984;-82
2021/12/12 06:43:06;;;;;;;;;;;;;;;3.48;95.92;101551.06;4978110;28;20029;-81
2021/12/12 06:45:31;;;;;;;;;;;;;;;3.39;96.12;101550.56;4944456;27;20358;-81
2021/12/12 06:47:57;;;;;;;;;;;;;;;3.45;95.90;101554.66;4977905;27;20170;-81
2021/12/12 06:50:22;;;;;;;;;;;;;;;3.51;96.27;101548.28;4950803;27;19926;-79
2021/12/12 06:52:47;;;;;;;;;;;;;;;3.47;95.81;101558.06;4969571;27;19907;-80
2021/12/12 06:55:13;;;;;;;;;;;;;;;3.48;96.27;101558.91;4967169;27;20287;-79
2021/12/12 06:57:39;;;;;;;;;;;;;;;3.52;96.24;101560.47;4973721;27;20211;-79
2021/12/12 07:00:05;;;;;;;;;;;;;;;3.47;96.45;101551.97;4960126;27;20261;-79
2021/12/12 07:02:31;;;;;;;;;;;;;;;3.50;96.48;101551.81;4952529;27;19899;-79
2021/12/12 07:04:56;;;;;;;;;;;;;;;3.58;96.46;101557.53;4982948;27;19907;-79
2021/12/12 07:07:21;;;;;;;;;;;;;;;3.58;96.54;101549.69;4968814;27;20200;-79
2021/12/12 07:09:46;;;;;;;;;;;;;;;3.61;96.43;101541.72;4968861;27;19961;-78
2021/12/12 07:12:12;;;;;;;;;;;;;;;3.67;96.15;101541.44;4950174;27;19953;-79
2021/12/12 07:14:38;;;;;;;;;;;;;;;3.67;96.22;101549.28;4951060;27;20423;-79
2021/12/12 07:17:03;;;;;;;;;;;;;;;3.66;96.29;101551.97;4964287;27;19914;-79
2021/12/12 07:19:29;;;;;;;;;;;;;;;3.63;96.44;101554.75;4967280;27;19923;-79
2021/12/12 07:21:54;;;;;;;;;;;;;;;3.69;96.95;101552.66;4957205;28;19908;-79
2021/12/12 07:24:19;;;;;;;;;;;;;;;3.75;96.56;101557.63;4952485;28;20299;-79
2021/12/12 07:26:44;;;;;;;;;;;;;;;3.78;96.45;101548.78;4967577;27;20180;-79
2021/12/12 07:29:10;;;;;;;;;;;;;;;3.76;96.38;101554.06;4952749;28;19974;-79
2021/12/12 07:31:35;;;;;;;;;;;;;;;3.73;96.80;101562.06;4960017;28;19911;-80
2021/12/12 07:34:02;;;;;;;;;;;;;;;3.82;97.04;101554.69;4967029;27;20669;-80
2021/12/12 07:36:28;;;;;;;;;;;;;;;3.82;97.02;101550.34;4967452;28;19961;-79
2021/12/12 07:38:54;;;;;;;;;;;;;;;3.84;97.02;101560.72;4961118;28;20256;-80
2021/12/12 07:41:20;;;;;;;;;;;;;;;3.86;96.85;101551.84;4947541;27;20216;-79
2021/12/12 07:43:45;;;;;;;;;;;;;;;3.90;96.72;101544.72;4969300;27;19907;-80
2021/12/12 07:46:10;;;;;;;;;;;;;;;3.92;96.44;101545.47;4966654;27;19927;-79
2021/12/12 07:48:39;;;;;;;;;;;;;;;3.87;96.65;101544.88;4987279;27;20021;-78
2021/12/12 07:51:04;;;;;;;;;;;;;;;3.84;96.84;101539.78;4972606;27;19963;-79
2021/12/12 07:53:30;;;;;;;;;;;;;;;3.84;97.13;101547.66;4944864;27;19912;-80
2021/12/12 07:55:55;;;;;;;;;;;;;;;3.90;96.96;101544.72;4949333;27;19933;-81
2021/12/12 07:58:21;;;;;;;;;;;;;;;3.92;97.21;101542.84;4974258;27;20062;-79
2021/12/12 08:00:47;;;;;;;;;;;;;;;3.92;96.99;101559.44;4973031;27;20169;-81
2021/12/12 08:03:13;;;;;;;;;;;;;;;3.94;97.46;101564.59;4952176;27;20801;-80
2021/12/12 08:05:38;;;;;;;;;;;;;;;4.02;96.93;101572.06;4970489;27;20012;-81
2021/12/12 08:08:05;;;;;;;;;;;;;;;4.05;97.10;101585.88;4960650;28;19899;-80
2021/12/12 08:10:30;;;;;;;;;;;;;;;4.02;97.03;101575.56;4949720;28;19916;-79
2021/12/12 08:12:55;;;;;;;;;;;;;;;3.99;97.28;101575.72;4945583;28;20241;-78
2021/12/12 08:15:20;;;;;;;;;;;;;;;3.98;97.58;101579.25;4968580;27;20531;-78
2021/12/12 08:17:46;;;;;;;;;;;;;;;4.07;97.48;101584.03;4978178;28;20033;-80
2021/12/12 08:20:11;;;;;;;;;;;;;;;4.07;97.48;101584.03;4975395;27;19964;-82
2021/12/12 08:22:36;;;;;;;;;;;;;;;4.16;97.22;101589.75;4979169;28;19957;-81
2021/12/12 08:25:03;;;;;;;;;;;;;;;4.20;97.36;101592.16;4981893;28;19976;-81
2021/12/12 08:27:28;;;;;;;;;;;;;;;4.22;97.03;101587.69;4963803;28;20182;-82
2021/12/12 08:29:54;;;;;;;;;;;;;;;4.25;97.28;101591.94;4970217;28;20743;-82
2021/12/12 08:32:19;;;;;;;;;;;;;;;4.89;97.73;101592.25;4966870;28;19904;-80
2021/12/12 08:34:45;;;;;;;;;;;;;;;5.20;96.66;101591.47;4996320;28;19908;-80
2021/12/12 08:37:10;;;;;;;;;;;;;;;4.95;93.22;101586.66;5007907;27;20282;-80
2021/12/12 08:39:35;;;;;;;;;;;;;;;4.82;93.60;101587.31;5011274;27;20206;-80
2021/12/12 08:42:03;;;;;;;;;;;;;;;4.72;93.53;101593.09;4985229;28;20231;-79
2021/12/12 08:44:29;;;;;;;;;;;;;;;4.58;94.76;101593.78;5003665;27;19908;-81
2021/12/12 08:46:55;;;;;;;;;;;;;;;4.55;95.10;101594.78;4995305;27;19923;-80
2021/12/12 08:49:21;;;;;;;;;;;;;;;4.52;95.43;101594.13;5010457;27;19908;-79
2021/12/12 08:51:48;;;;;;;;;;;;;;;4.47;95.22;101586.50;4995535;27;20147;-79
2021/12/12 08:54:15;;;;;;;;;;;;;;;4.49;96.00;101586.41;4995298;27;20030;-80
2021/12/12 08:56:45;;;;;;;;;;;;;;;4.55;95.62;101593.94;4994250;28;20261;-79
2021/12/12 08:59:12;;;;;;;;;;;;;;;4.45;96.40;101599.63;4994120;28;19968;-79
2021/12/12 09:01:38;;;;;;;;;;;;;;;4.37;96.63;101603.56;4994020;28;20411;-82
2021/12/12 09:04:03;;;;;;;;;;;;;;;4.42;97.20;101597.19;4994358;27;20028;-79
2021/12/12 09:06:29;;;;;;;;;;;;;;;4.46;96.60;101596.09;4983024;28;19911;-81
2021/12/12 09:08:59;;;;;;;;;;;;;;;4.45;96.55;101599.63;4982407;28;19968;-81
2021/12/12 09:11:33;;;;;;;;;;;;;;;4.44;96.60;101602.34;4976736;28;19998;-80
2021/12/12 09:14:11;;;;;;;;;;;;;;;4.50;96.54;101601.19;4989924;28;20577;-80
2021/12/12 09:16:47;;;;;;;;;;;;;;;4.43;97.03;101606.75;5001748;27;20614;-78
2021/12/12 09:19:13;;;;;;;;;;;;;;;4.46;97.46;101611.81;5007767;27;19927;-78
2021/12/12 09:21:50;;;;;;;;;;;;;;;4.45;97.09;101617.16;5011143;27;20453;-79
2021/12/12 09:24:19;;;;;;;;;;;;;;;4.47;97.01;101605.66;4999103;27;20411;-78
2021/12/12 09:26:48;;;;;;;;;;;;;;;4.48;97.12;101609.13;4981546;28;20267;-78
2021/12/12 09:29:17;;;;;;;;;;;;;;;4.49;97.21;101613.44;4989663;28;20818;-80
2021/12/12 09:32:02;;;;;;;;;;;;;;;4.49;96.92;101610.00;5009789;27;19908;-81
2021/12/12 09:34:33;;;;;;;;;;;;;;;4.53;97.00;101614.16;4991535;28;20468;-80
2021/12/12 09:36:59;;;;;;;;;;;;;;;4.53;96.81;101612.38;4979018;28;20333;-80
2021/12/12 09:39:30;;;;;;;;;;;;;;;4.68;97.17;101613.38;4970241;28;20507;-80
2021/12/12 09:41:58;;;;;;;;;;;;;;;4.67;96.94;101611.69;5000742;27;20355;-80
2021/12/12 09:44:31;;;;;;;;;;;;;;;4.73;96.24;101603.50;5009848;27;20543;-80
2021/12/12 09:47:31;;;;;;;;;;;;;;;4.66;96.70;101611.78;4988094;28;19928;-80
2021/12/12 09:53:10;;;;;;;;;;;;;;;4.73;95.73;101600.88;4992645;28;20304;-78
2021/12/12 09:55:58;;;;;;;;;;;;;;;4.73;95.50;101611.38;5012860;28;20226;-79
2021/12/12 09:58:42;;;;;;;;;;;;;;;4.80;95.41;101597.03;4985169;28;19928;-78
2021/12/12 10:01:34;;;;;;;;;;;;;;;4.74;96.04;101594.72;4992849;28;19916;-79
2021/12/12 10:04:08;;;;;;;;;;;;;;;4.80;95.46;101598.81;4988051;28;20339;-78
2021/12/12 10:06:55;;;;;;;;;;;;;;;4.79;95.70;101592.72;4976325;28;20615;-76
2021/12/12 10:09:22;;;;;;;;;;;;;;;4.78;96.05;101591.03;4965776;28;19915;-79
2021/12/12 10:12:00;;;;;;;;;;;;;;;4.85;95.70;101590.69;4985363;28;19908;-79
2021/12/12 10:14:31;;;;;;;;;;;;;;;4.79;95.29;101592.72;4992049;28;19919;-78
2021/12/12 10:17:02;;;;;;;;;;;;;;;4.80;95.85;101602.28;4983196;28;19916;-78
2021/12/12 10:19:30;;;;;;;;;;;;;;;4.89;95.49;101602.72;4984626;28;19920;-78
2021/12/12 10:22:01;;;;;;;;;;;;;;;4.89;95.41;101598.31;4988561;28;20363;-78
2021/12/12 10:24:53;;;;;;;;;;;;;;;4.91;94.71;101603.50;4989224;28;19904;-78
2021/12/12 10:27:34;;;;;;;;;;;;;;;5.04;93.74;101603.72;4973737;28;20212;-78
2021/12/12 10:30:05;;;;;;;;;;;;;;;5.02;93.83;101603.81;4994519;28;20008;-78
2021/12/12 10:32:32;;;;;;;;;;;;;;;5.00;94.64;101605.66;5008891;28;20339;-78
2021/12/12 10:35:00;;;;;;;;;;;;;;;4.94;94.52;101601.56;5001884;28;20259;-79
2021/12/12 10:37:27;;;;;;;;;;;;;;;5.01;94.71;101604.72;4992767;28;20005;-78
2021/12/12 10:40:02;;;;;;;;;;;;;;;5.00;94.47;101600.41;4994269;28;20122;-78
2021/12/12 10:42:29;;;;;;;;;;;;;;;5.00;93.91;101597.78;4977524;28;20215;-77
2021/12/12 10:45:03;;;;;;;;;;;;;;;5.09;93.82;101594.69;4987150;27;20844;-77
2021/12/12 10:47:34;;;;;;;;;;;;;;;5.11;93.87;101594.59;4995984;27;20264;-76
2021/12/12 10:50:04;;;;;;;;;;;;;;;5.14;94.54;101595.28;5008917;27;20270;-77
2021/12/12 10:52:48;;;;;;;;;;;;;;;5.15;94.45;101599.59;5034751;27;20427;-76
2021/12/12 10:55:17;;;;;;;;;;;;;;;5.25;93.74;101599.13;5015127;27;20040;-77
2021/12/12 10:57:42;;;;;;;;;;;;;;;5.31;93.49;101594.38;4971581;27;19931;-78
2021/12/12 11:00:18;;;;;;;;;;;;;;;5.40;93.00;101595.69;4970624;27;19920;-79
2021/12/12 11:02:47;;;;;;;;;;;;;;;5.35;92.56;101605.56;4967653;27;20317;-79
2021/12/12 11:05:19;;;;;;;;;;;;;;;5.38;93.27;101601.94;4984074;27;20374;-78
2021/12/12 11:07:49;;;;;;;;;;;;;;;5.45;93.12;101605.94;4983026;27;19916;-77
2021/12/12 11:10:25;;;;;;;;;;;;;;;5.45;93.17;101606.78;4983323;27;20252;-77
2021/12/12 11:13:10;;;;;;;;;;;;;;;5.52;93.07;101601.22;5004846;27;19912;-78
2021/12/12 11:15:44;;;;;;;;;;;;;;;5.45;92.30;101606.78;4980203;28;20142;-79
2021/12/12 11:18:27;;;;;;;;;;;;;;;5.45;92.47;101604.16;4999982;28;19920;-78
2021/12/12 11:20:54;;;;;;;;;;;;;;;5.37;93.53;101606.31;5036432;27;20024;-80
2021/12/12 11:23:28;;;;;;;;;;;;;;;5.38;93.34;101600.16;4989238;27;20217;-77
2021/12/12 11:25:57;;;;;;;;;;;;;;;5.54;93.34;101605.41;5005687;27;20351;-77
2021/12/12 11:28:24;;;;;;;;;;;;;;;5.54;93.18;101601.97;4987520;27;19911;-77
2021/12/12 11:30:52;;;;;;;;;;;;;;;5.58;92.86;101611.38;5026489;27;19918;-77
2021/12/12 11:33:18;;;;;;;;;;;;;;;5.55;93.14;101607.13;5003184;27;19933;-78
2021/12/12 11:35:44;;;;;;;;;;;;;;;5.55;92.90;101609.75;4978357;27;19911;-77
2021/12/12 11:38:28;;;;;;;;;;;;;;;5.57;93.23;101614.91;4972494;27;19915;-78
2021/12/12 11:40:57;;;;;;;;;;;;;;;5.64;93.90;101626.78;5023328;27;19922;-77
2021/12/12 11:43:28;;;;;;;;;;;;;;;5.63;93.89;101617.22;4990145;27;20310;-78
2021/12/12 11:45:57;;;;;;;;;;;;;;;5.68;93.83;101615.19;5017367;27;20361;-76
2021/12/12 11:48:38;;;;;;;;;;;;;;;5.64;93.82;101616.28;4989394;28;19912;-79
2021/12/12 11:51:12;;;;;;;;;;;;;;;5.60;93.97;101620.03;5016735;27;20385;-78
2021/12/12 11:53:40;;;;;;;;;;;;;;;5.60;94.09;101620.03;5035065;27;19908;-79
2021/12/12 11:56:11;;;;;;;;;;;;;;;5.47;94.78;101620.69;5010198;28;20199;-78
2021/12/12 11:58:45;;;;;;;;;;;;;;;5.52;94.98;101627.47;5033292;27;20288;-77
2021/12/12 12:01:16;;;;;;;;;;;;;;;5.50;95.61;101627.53;5009751;27;20008;-77
2021/12/12 12:04:00;;;;;;;;;;;;;;;5.55;95.63;101622.03;5038214;27;20318;-76
2021/12/12 12:06:31;;;;;;;;;;;;;;;5.59;96.24;101626.19;4983596;27;20467;-79
2021/12/12 12:08:56;;;;;;;;;;;;;;;5.56;96.26;101627.22;4974106;27;19911;-79
2021/12/12 12:11:24;;;;;;;;;;;;;;;5.67;96.05;101626.63;4992923;27;20144;-77
2021/12/12 12:14:16;;;;;;;;;;;;;;;5.63;96.10;101625.09;4994887;27;19904;-77
2021/12/12 12:16:47;;;;;;;;;;;;;;;5.65;96.08;101612.72;4999397;27;20056;-77
2021/12/12 12:19:12;;;;;;;;;;;;;;;5.68;96.30;101618.66;4981083;28;19920;-76
2021/12/12 12:21:40;;;;;;;;;;;;;;;5.74;96.22;101619.25;5000796;28;20329;-76
2021/12/12 12:24:13;;;;;;;;;;;;;;;5.80;96.20;101617.16;5021815;28;20301;-77
2021/12/12 12:26:51;;;;;;;;;;;;;;;5.77;96.58;101609.44;5009835;28;19918;-77
2021/12/12 12:29:28;;;;;;;;;;;;;;;5.75;96.37;101611.28;5027478;28;20305;-79
2021/12/12 12:32:12;;;;;;;;;;;;;;;5.78;96.30;101619.03;4998032;28;19961;-79
2021/12/12 12:34:49;;;;;;;;;;;;;;;5.81;96.21;101613.59;5003743;28;19919;-77
2021/12/12 12:37:33;;;;;;;;;;;;;;;5.82;96.46;101615.31;5030893;27;20332;-77
2021/12/12 12:40:16;;;;;;;;;;;;;;;5.88;96.44;101608.00;5020123;28;20303;-77
2021/12/12 12:43:00;;;;;;;;;;;;;;;5.75;96.71;101619.16;5017131;28;20400;-77
2021/12/12 12:45:44;;;;;;;;;;;;;;;5.80;96.97;101616.31;5017348;28;19912;-77
2021/12/12 12:48:12;;;;;;;;;;;;;;;5.81;96.85;101617.97;4991179;28;20332;-76
2021/12/12 12:50:48;;;;;;;;;;;;;;;5.86;96.87;101613.34;4986220;28;20319;-77
2021/12/12 12:53:43;;;;;;;;;;;;;;;5.86;97.43;101618.59;4975261;28;19934;-79
2021/12/12 12:56:26;;;;;;;;;;;;;;;5.88;97.01;101618.50;4933345;28;19917;-79
2021/12/12 12:59:07;;;;;;;;;;;;;;;5.83;97.60;101609.09;5012495;28;20188;-77
2021/12/12 13:01:32;;;;;;;;;;;;;;;5.88;98.04;101621.13;5016025;28;20075;-77
2021/12/12 13:04:03;;;;;;;;;;;;;;;5.91;97.73;101616.56;5004312;28;19915;-78
2021/12/12 13:06:48;;;;;;;;;;;;;;;5.91;97.99;101613.94;5007160;28;20496;-77
2021/12/12 13:09:21;;;;;;;;;;;;;;;5.90;98.03;101611.41;5016881;28;20478;-76
2021/12/12 13:12:05;;;;;;;;;;;;;;;6.00;97.82;101615.22;5002395;28;19948;-77
2021/12/12 13:14:31;;;;;;;;;;;;;;;5.98;98.06;101612.69;5001589;28;20126;-77
2021/12/12 13:16:56;;;;;;;;;;;;;;;5.93;97.85;101611.22;4983961;28;20052;-76
2021/12/12 13:19:29;;;;;;;;;;;;;;;5.93;98.43;101611.22;4985574;28;20276;-76